LiveATC.Net - Listen to live air traffic control over the Internet! Contact LiveATC.net for advertising information


ICAO: 2U7  IATA: 2U7   Airport: Stanley Airport
City: Stanley   State/Province: Idaho
Country: United States   Continent: North America
KSNT METAR Weather: KSNT 181951Z AUTO 34007KT 300V360 06/M09 A2998 RMK AO1 SLP112 T00561089
2U7 Flight Activity (FlightAware)
2U7 Airport Info   (AirNav) (iFlightPlanner)
2U7 CTAF
Feed Status: DOWN
Last heard on: 2013-11-09 22:04:06 (159 days 22 hours 40 minutes ago)
2U7 CTAF Audio Archives
FacilityFrequency
Stanley CTAF122.900


NOTICE

Unauthorized use prohibited. See LiveATC.net Terms of Service


Find LiveATC Audio Streams


Airport/ARTCC Code

Frequency
(e.g., 124.400, 128.75)
Site-wide search

Browse LiveATC Feeds
LiveATC Coverage Map
Top 50 LiveATC Feeds
Bad Weather Areas

LiveATC FAQ
Offer a LiveATC Feed
Contact LiveATC.net
Press Inquiries

LiveATC on iPhone
LiveATC on Android

LiveATC Mobile
(Mobile browser)

ATC Audio Archives
Interesting Recordings

LiveATC Forums


Home Page
About LiveATC.net
Make a Donation
LiveATC Bookstore

Terms of Use
Privacy Policy

ATC/Radar Sites
U.S. ARTCC Freqs
Canadian Air Freqs

AIRMETs/SIGMETs

FAA Airport Status
Nat'l Airspace Status
Arrival Demand Charts


Server Software By:
Icecast.org
Liquidsoap

Please make a donation to help us keep growing!